createdAt,value
2023-01-06T00:01:54.891Z,6.90
2023-01-06T00:05:00.346Z,6.63
2023-01-06T00:08:07.940Z,4.47
2023-01-06T00:11:13.217Z,4.80
2023-01-06T00:14:16.557Z,5.70
2023-01-06T00:17:19.918Z,5.47
2023-01-06T00:20:25.929Z,6.57
2023-01-06T00:23:32.749Z,9.05
2023-01-06T00:26:35.724Z,7.40
2023-01-06T00:29:38.709Z,5.53
2023-01-06T00:32:41.691Z,8.25
2023-01-06T00:35:44.759Z,5.93
2023-01-06T00:38:52.977Z,5.50
2023-01-06T00:42:05.129Z,7.05
2023-01-06T00:45:09.370Z,10.07
2023-01-06T00:48:12.895Z,8.55
2023-01-06T00:51:16.325Z,8.63
2023-01-06T00:54:21.825Z,6.50
2023-01-06T00:57:24.968Z,6.57
2023-01-06T01:00:28.051Z,6.63
2023-01-06T01:03:36.154Z,4.88
2023-01-06T01:06:39.938Z,6.05
2023-01-06T01:09:44.433Z,8.00
2023-01-06T01:12:47.462Z,6.75
2023-01-06T01:15:51.131Z,9.27
2023-01-06T01:18:54.106Z,8.48
2023-01-06T01:21:57.381Z,7.95
2023-01-06T01:25:01.854Z,12.87
2023-01-06T01:28:06.161Z,9.45
2023-01-06T01:31:09.848Z,7.65
2023-01-06T01:34:15.136Z,10.00
2023-01-06T01:37:18.175Z,9.93
2023-01-06T01:40:22.649Z,12.77
2023-01-06T01:43:50.097Z,11.25
2023-01-06T01:46:53.653Z,11.27
2023-01-06T01:50:03.481Z,9.88
2023-01-06T01:53:12.455Z,7.60
2023-01-06T01:56:25.933Z,8.95
2023-01-06T01:59:33.348Z,16.47
2023-01-06T02:02:37.017Z,9.48
2023-01-06T02:05:46.848Z,6.32
2023-01-06T02:08:57.975Z,7.20
2023-01-06T02:12:02.505Z,4.85
2023-01-06T02:15:15.903Z,11.65
2023-01-06T02:18:46.282Z,4.72
2023-01-06T02:22:17.842Z,8.25
2023-01-06T02:26:07.613Z,4.85
2023-01-06T02:29:57.277Z,4.68
2023-01-06T02:33:25.089Z,5.07
2023-01-06T02:36:38.800Z,4.82
2023-01-06T02:40:00.185Z,7.75
2023-01-06T02:43:16.623Z,12.90
2023-01-06T02:46:48.756Z,5.00
2023-01-06T02:50:07.725Z,4.32
2023-01-06T02:53:21.324Z,3.42
2023-01-06T02:56:32.354Z,2.67
2023-01-06T02:59:46.135Z,5.78
2023-01-06T03:02:59.579Z,3.55
2023-01-06T03:06:11.983Z,7.30
2023-01-06T03:09:19.073Z,7.28
2023-01-06T03:12:31.928Z,4.55
2023-01-06T03:15:36.173Z,8.05
2023-01-06T03:18:41.295Z,2.22
2023-01-06T03:21:49.755Z,5.68
2023-01-06T03:24:54.520Z,6.32
2023-01-06T03:27:57.691Z,5.15
2023-01-06T03:31:14.907Z,4.67
2023-01-06T03:34:26.849Z,2.92
2023-01-06T03:37:45.391Z,3.67
2023-01-06T03:41:00.809Z,2.45
2023-01-06T03:44:11.733Z,2.85
2023-01-06T03:47:25.248Z,5.30
2023-01-06T03:50:36.579Z,4.23
2023-01-06T03:53:51.055Z,6.10
2023-01-06T03:57:03.259Z,9.23
2023-01-06T04:00:13.291Z,6.90
2023-01-06T04:03:17.599Z,5.25
2023-01-06T04:06:20.630Z,2.60
2023-01-06T04:09:25.038Z,5.00
2023-01-06T04:12:43.404Z,6.35
2023-01-06T04:15:46.369Z,4.68
2023-01-06T04:18:49.390Z,5.53
2023-01-06T04:21:52.385Z,4.30
2023-01-06T04:24:59.034Z,2.55
2023-01-06T04:28:02.003Z,5.28
2023-01-06T04:31:09.102Z,4.47
2023-01-06T04:34:12.167Z,3.65
2023-01-06T04:37:15.220Z,3.25
2023-01-06T04:40:19.622Z,3.95
2023-01-06T04:43:25.728Z,8.75
2023-01-06T04:46:28.681Z,8.15
2023-01-06T04:49:32.356Z,4.70
2023-01-06T04:52:35.323Z,4.60
2023-01-06T04:55:41.266Z,3.78
2023-01-06T04:58:44.332Z,4.45
2023-01-06T05:01:47.436Z,6.47
2023-01-06T05:04:50.868Z,7.65
2023-01-06T05:07:55.456Z,4.95
2023-01-06T05:11:06.560Z,4.63
2023-01-06T05:14:09.598Z,5.13
2023-01-06T05:17:12.566Z,3.92
2023-01-06T05:20:15.931Z,7.47
2023-01-06T05:23:19.240Z,5.40
2023-01-06T05:26:28.899Z,4.37
2023-01-06T05:29:31.909Z,4.93
2023-01-06T05:32:34.935Z,4.30
2023-01-06T05:35:38.194Z,7.07
2023-01-06T05:38:42.115Z,7.00
2023-01-06T05:41:46.792Z,7.47
2023-01-06T05:44:50.190Z,4.28
2023-01-06T05:47:53.733Z,1.93
2023-01-06T05:51:04.843Z,5.78
2023-01-06T05:54:10.253Z,2.20
2023-01-06T05:57:16.876Z,5.20
2023-01-06T06:00:20.704Z,7.40
2023-01-06T06:03:24.086Z,3.97
2023-01-06T06:06:29.500Z,7.45
2023-01-06T06:09:32.869Z,4.43
2023-01-06T06:12:37.759Z,3.45
2023-01-06T06:15:43.589Z,2.83
2023-01-06T06:18:51.877Z,6.70
2023-01-06T06:21:55.350Z,8.70
2023-01-06T06:24:58.687Z,5.88
2023-01-06T06:28:03.420Z,5.90
2023-01-06T06:31:07.857Z,3.55
2023-01-06T06:34:13.477Z,5.00
2023-01-06T06:37:16.824Z,5.07
2023-01-06T06:40:20.202Z,7.18
2023-01-06T06:43:25.426Z,5.78
2023-01-06T06:46:28.790Z,7.70
2023-01-06T06:49:32.116Z,5.53
2023-01-06T06:52:35.420Z,5.60
2023-01-06T06:55:40.388Z,5.57
2023-01-06T06:58:49.195Z,7.63
2023-01-06T07:01:52.728Z,6.93
2023-01-06T07:04:56.091Z,3.80
2023-01-06T07:08:02.427Z,10.10
2023-01-06T07:11:06.273Z,1.77
2023-01-06T07:14:10.960Z,7.35
2023-01-06T07:17:14.256Z,6.30
2023-01-06T07:20:18.059Z,5.90
2023-01-06T07:23:24.461Z,7.28
2023-01-06T07:26:28.031Z,8.30
2023-01-06T07:29:32.736Z,5.18
2023-01-06T07:32:35.801Z,8.27
2023-01-06T07:35:39.488Z,6.72
2023-01-06T07:38:42.450Z,6.75
2023-01-06T07:41:45.433Z,4.32
2023-01-06T07:44:49.890Z,8.52
2023-01-06T07:47:52.933Z,7.22
2023-01-06T07:50:58.529Z,13.80
2023-01-06T07:54:02.352Z,15.00
2023-01-06T07:57:05.621Z,10.60
2023-01-06T08:00:12.199Z,6.10
2023-01-06T08:03:16.786Z,7.53
2023-01-06T08:06:19.811Z,12.02
2023-01-06T08:09:23.372Z,12.50
2023-01-06T08:12:26.696Z,10.40
2023-01-06T08:15:31.390Z,8.00
2023-01-06T08:18:34.936Z,21.48
2023-01-06T08:21:38.462Z,11.50
2023-01-06T08:24:41.435Z,15.98
2023-01-06T08:27:44.903Z,12.38
2023-01-06T08:30:49.324Z,15.48
2023-01-06T08:33:53.565Z,17.55
2023-01-06T08:36:56.597Z,11.23
2023-01-06T08:39:59.627Z,22.80
2023-01-06T08:43:02.867Z,17.60
2023-01-06T08:46:09.733Z,12.50
2023-01-06T08:49:12.944Z,16.40
2023-01-06T08:52:15.937Z,18.47
2023-01-06T08:55:19.104Z,18.17
2023-01-06T08:58:22.129Z,21.03
2023-01-06T09:01:30.604Z,19.92
2023-01-06T09:04:33.631Z,16.42
2023-01-06T09:07:36.595Z,21.58
2023-01-06T09:10:42.799Z,21.55
2023-01-06T09:13:46.250Z,26.85
2023-01-06T09:16:50.571Z,25.05
2023-01-06T09:19:53.491Z,30.23
2023-01-06T09:22:56.624Z,23.98
2023-01-06T09:26:01.661Z,24.23
2023-01-06T09:29:04.653Z,25.35
2023-01-06T09:32:09.600Z,27.40
2023-01-06T09:35:12.883Z,26.33
2023-01-06T09:38:16.744Z,29.00
2023-01-06T09:42:01.523Z,27.83
2023-01-06T09:45:11.454Z,30.02
2023-01-06T09:48:22.736Z,27.88
2023-01-06T09:51:29.991Z,29.33
2023-01-06T09:54:40.374Z,23.35
2023-01-06T09:57:50.031Z,21.95
2023-01-06T10:00:56.759Z,16.38
2023-01-06T10:04:01.339Z,20.25
2023-01-06T10:07:18.250Z,16.20
2023-01-06T10:10:34.313Z,20.83
2023-01-06T10:13:58.531Z,17.92
2023-01-06T10:17:23.223Z,23.50
2023-01-06T10:24:18.555Z,20.23
2023-01-06T10:27:28.071Z,16.88
2023-01-06T10:30:43.853Z,20.13
2023-01-06T10:33:52.091Z,18.02
2023-01-06T10:37:06.380Z,16.92
2023-01-06T10:40:20.905Z,26.02
2023-01-06T10:43:29.953Z,18.13
2023-01-06T10:46:36.753Z,14.48
2023-01-06T10:49:40.012Z,12.13
2023-01-06T10:52:45.801Z,18.13
2023-01-06T10:55:54.093Z,16.25
2023-01-06T10:59:04.362Z,8.82
2023-01-06T11:02:23.798Z,14.63
2023-01-06T11:05:30.908Z,8.55
2023-01-06T11:08:36.988Z,14.63
2023-01-06T11:11:50.083Z,11.20
2023-01-06T11:14:59.459Z,7.93
2023-01-06T11:18:03.498Z,11.27
2023-01-06T11:21:09.951Z,24.52
2023-01-06T11:24:21.150Z,15.48
2023-01-06T11:27:24.543Z,7.97
2023-01-06T11:30:29.295Z,7.72
2023-01-06T11:33:35.007Z,9.15
2023-01-06T11:36:47.071Z,17.63
2023-01-06T11:40:00.477Z,10.20
2023-01-06T11:43:16.931Z,14.75
2023-01-06T11:46:25.382Z,14.88
2023-01-06T11:49:31.956Z,12.27
2023-01-06T11:52:36.601Z,19.73
2023-01-06T11:55:40.970Z,15.93
2023-01-06T11:59:04.353Z,13.00
2023-01-06T12:02:21.174Z,11.95
2023-01-06T12:05:37.026Z,8.93
2023-01-06T12:08:48.734Z,12.80
2023-01-06T12:11:55.378Z,8.80
2023-01-06T12:14:58.991Z,7.85
2023-01-06T12:18:08.948Z,6.30
2023-01-06T12:21:16.984Z,6.88
2023-01-06T12:24:24.593Z,5.88
2023-01-06T12:27:37.450Z,6.25
2023-01-06T12:30:51.814Z,4.32
2023-01-06T12:37:15.628Z,5.07
2023-01-06T12:40:31.589Z,5.07
2023-01-06T12:43:42.027Z,4.80
2023-01-06T12:46:56.567Z,5.18
2023-01-06T12:50:05.911Z,5.40
2023-01-06T12:53:21.066Z,3.50
2023-01-06T12:56:55.712Z,4.03
2023-01-06T13:00:18.946Z,4.10
2023-01-06T13:04:08.425Z,2.60
2023-01-06T13:07:25.048Z,3.67
2023-01-06T13:10:37.990Z,2.13
2023-01-06T13:14:01.863Z,2.22
2023-01-06T13:17:15.000Z,2.20
2023-01-06T13:20:26.986Z,2.85
2023-01-06T13:24:22.712Z,3.10
2023-01-06T13:28:01.391Z,2.78
2023-01-06T13:31:40.786Z,2.38
2023-01-06T13:35:18.896Z,2.28
2023-01-06T13:38:50.051Z,4.18
2023-01-06T13:41:58.341Z,3.65
2023-01-06T13:45:02.254Z,4.32
2023-01-06T13:48:09.058Z,1.50
2023-01-06T13:51:18.496Z,2.70
2023-01-06T13:55:23.309Z,2.70
2023-01-06T13:58:37.837Z,4.85
2023-01-06T14:04:48.607Z,1.90
2023-01-06T14:07:56.163Z,5.55
2023-01-06T14:11:22.988Z,3.38
2023-01-06T14:14:30.866Z,8.57
2023-01-06T14:17:41.745Z,9.30
2023-01-06T14:20:44.874Z,4.28
2023-01-06T14:23:57.654Z,5.72
2023-01-06T14:27:03.591Z,8.15
2023-01-06T14:30:21.826Z,10.43
2023-01-06T14:33:37.913Z,8.95
2023-01-06T14:36:42.385Z,7.40
2023-01-06T14:39:51.486Z,6.72
2023-01-06T14:42:57.748Z,6.00
2023-01-06T14:46:14.484Z,7.03
2023-01-06T14:49:26.382Z,12.57
2023-01-06T14:52:35.836Z,9.10
2023-01-06T14:55:46.909Z,9.55
2023-01-06T14:58:50.098Z,16.02
2023-01-06T15:02:01.161Z,6.78
2023-01-06T15:05:06.849Z,6.18
2023-01-06T15:08:19.371Z,15.52
2023-01-06T15:11:29.853Z,8.05
2023-01-06T15:14:35.421Z,9.55
2023-01-06T15:17:38.519Z,9.30
2023-01-06T15:20:44.948Z,13.32
2023-01-06T15:23:52.622Z,8.27
2023-01-06T15:27:05.279Z,11.98
2023-01-06T15:30:19.140Z,15.88
2023-01-06T15:33:26.305Z,8.65
2023-01-06T15:36:31.892Z,14.15
2023-01-06T15:39:36.416Z,15.40
2023-01-06T15:42:41.977Z,12.13
2023-01-06T15:45:57.973Z,11.32
2023-01-06T15:49:02.103Z,18.27
2023-01-06T15:55:25.705Z,20.42
2023-01-06T15:58:32.985Z,12.48
2023-01-06T16:01:36.537Z,13.50
2023-01-06T16:04:45.534Z,13.57
2023-01-06T16:07:48.592Z,14.00
2023-01-06T16:11:10.649Z,15.70
2023-01-06T16:14:35.462Z,13.32
2023-01-06T16:17:47.348Z,14.95
2023-01-06T16:20:50.748Z,16.10
2023-01-06T16:23:56.398Z,10.35
2023-01-06T16:27:03.465Z,13.75
2023-01-06T16:30:30.124Z,13.40
2023-01-06T16:33:39.046Z,15.73
2023-01-06T16:36:42.654Z,13.50
2023-01-06T16:39:46.056Z,10.55
2023-01-06T16:42:50.965Z,18.00
2023-01-06T16:46:00.601Z,17.15
2023-01-06T16:49:11.362Z,14.63
2023-01-06T16:52:14.867Z,16.27
2023-01-06T16:55:20.875Z,17.38
2023-01-06T16:58:26.417Z,15.13
2023-01-06T17:01:31.718Z,12.63
2023-01-06T17:04:35.178Z,14.13
2023-01-06T17:07:40.179Z,9.77
2023-01-06T17:10:44.698Z,12.23
2023-01-06T17:13:55.037Z,13.25
2023-01-06T17:17:20.799Z,14.32
2023-01-06T17:20:25.389Z,13.13
2023-01-06T17:23:28.917Z,14.23
2023-01-06T17:26:33.317Z,14.13
2023-01-06T17:29:38.713Z,16.67
2023-01-06T17:32:45.190Z,15.43
2023-01-06T17:35:53.943Z,19.25
2023-01-06T17:38:57.263Z,12.55
2023-01-06T17:42:24.797Z,17.43
2023-01-06T17:45:29.814Z,18.50
2023-01-06T17:48:34.564Z,17.23
2023-01-06T17:51:40.744Z,17.20
2023-01-06T17:55:11.065Z,17.85
2023-01-06T17:58:17.288Z,17.60
2023-01-06T18:01:26.520Z,14.65
2023-01-06T18:04:32.849Z,21.48
2023-01-06T18:07:36.530Z,20.55
2023-01-06T18:10:43.211Z,27.33
2023-01-06T18:13:46.758Z,16.83
2023-01-06T18:16:54.161Z,14.20
2023-01-06T18:19:59.073Z,19.73
2023-01-06T18:23:02.465Z,16.30
2023-01-06T18:26:35.024Z,13.30
2023-01-06T18:29:40.156Z,17.27
2023-01-06T18:32:46.059Z,19.25
2023-01-06T18:35:52.677Z,16.75
2023-01-06T18:38:58.779Z,15.57
2023-01-06T18:42:22.982Z,14.10
2023-01-06T18:48:35.000Z,25.63
2023-01-06T18:51:39.333Z,19.95
2023-01-06T18:54:42.731Z,23.55
2023-01-06T18:57:49.047Z,15.73
2023-01-06T19:00:56.977Z,14.88
2023-01-06T19:04:05.576Z,31.10
2023-01-06T19:07:18.037Z,16.52
2023-01-06T19:10:28.927Z,24.95
2023-01-06T19:13:33.610Z,21.38
2023-01-06T19:16:43.537Z,17.88
2023-01-06T19:19:47.173Z,22.65
2023-01-06T19:22:53.015Z,14.32
2023-01-06T19:26:05.266Z,21.33
2023-01-06T19:29:15.521Z,21.83
2023-01-06T19:32:19.429Z,19.20
2023-01-06T19:35:27.331Z,18.70
2023-01-06T19:38:37.951Z,19.13
2023-01-06T19:41:42.437Z,17.75
2023-01-06T19:44:47.999Z,17.05
2023-01-06T19:47:51.203Z,13.73
2023-01-06T19:51:03.554Z,19.63
2023-01-06T19:54:24.347Z,22.60
2023-01-06T19:57:36.619Z,12.80
2023-01-06T20:00:47.488Z,25.35
2023-01-06T20:03:56.708Z,18.10
2023-01-06T20:07:01.954Z,13.30
2023-01-06T20:10:07.927Z,24.05
2023-01-06T20:13:10.969Z,21.17
2023-01-06T20:16:14.135Z,15.43
2023-01-06T20:19:17.519Z,16.40
2023-01-06T20:22:21.700Z,13.70
2023-01-06T20:25:26.191Z,15.15
2023-01-06T20:28:29.141Z,20.98
2023-01-06T20:31:32.701Z,15.10
2023-01-06T20:34:36.729Z,14.03
2023-01-06T20:37:40.045Z,15.90
2023-01-06T20:40:44.378Z,19.20
2023-01-06T20:43:47.816Z,22.20
2023-01-06T20:46:51.453Z,22.98
2023-01-06T20:49:54.420Z,23.70
2023-01-06T20:52:57.642Z,15.60
2023-01-06T20:56:02.123Z,19.13
2023-01-06T20:59:05.558Z,16.88
2023-01-06T21:02:08.894Z,19.88
2023-01-06T21:05:12.872Z,16.45
2023-01-06T21:08:16.281Z,17.20
2023-01-06T21:11:20.827Z,21.75
2023-01-06T21:14:24.630Z,14.18
2023-01-06T21:17:27.664Z,20.48
2023-01-06T21:20:31.219Z,16.42
2023-01-06T21:23:34.251Z,17.98
2023-01-06T21:26:38.610Z,23.15
2023-01-06T21:29:41.667Z,17.70
2023-01-06T21:32:45.047Z,13.43
2023-01-06T21:35:48.058Z,23.73
2023-01-06T21:38:51.210Z,24.75
2023-01-06T21:42:13.080Z,18.20
2023-01-06T21:45:16.286Z,20.88
2023-01-06T21:48:22.284Z,18.80
2023-01-06T21:51:25.606Z,20.25
2023-01-06T21:54:29.172Z,16.07
2023-01-06T21:57:33.591Z,19.15
2023-01-06T22:00:36.619Z,19.90
2023-01-06T22:03:39.623Z,15.80
2023-01-06T22:06:44.716Z,22.38
2023-01-06T22:09:48.474Z,19.73
2023-01-06T22:12:59.076Z,13.85
2023-01-06T22:16:02.159Z,13.45
2023-01-06T22:19:06.171Z,21.33
2023-01-06T22:22:09.312Z,22.08
2023-01-06T22:25:12.385Z,17.98
2023-01-06T22:28:16.807Z,25.00
2023-01-06T22:31:19.953Z,19.13
2023-01-06T22:34:23.011Z,19.67
2023-01-06T22:37:25.996Z,22.67
2023-01-06T22:40:29.470Z,24.02
2023-01-06T22:43:35.051Z,18.92
2023-01-06T22:46:38.190Z,15.70
2023-01-06T22:49:41.630Z,15.97
2023-01-06T22:52:45.206Z,15.40
2023-01-06T22:55:56.135Z,17.70
2023-01-06T22:59:00.647Z,18.58
2023-01-06T23:02:04.246Z,13.82
2023-01-06T23:05:08.287Z,20.48
2023-01-06T23:08:11.308Z,21.95
2023-01-06T23:11:17.960Z,13.02
2023-01-06T23:14:23.241Z,25.27
2023-01-06T23:17:26.294Z,16.95
2023-01-06T23:20:29.229Z,17.20
2023-01-06T23:23:34.500Z,19.95
2023-01-06T23:26:42.432Z,13.52
2023-01-06T23:29:48.097Z,14.05
2023-01-06T23:32:51.118Z,17.40
2023-01-06T23:35:54.076Z,18.27
2023-01-06T23:38:58.239Z,18.77
2023-01-06T23:45:06.486Z,15.00
2023-01-06T23:48:09.492Z,16.98
2023-01-06T23:51:13.875Z,23.50
2023-01-06T23:54:16.878Z,14.68
2023-01-06T23:57:19.865Z,14.73
